Time;durP1;ratioP1;P1;durP2;ratioP2;P2;SDS_P1;SDS_P2;PMS_P1;PMS_P2;Temp;Humidity;BMP_temperature;BMP_pressure;BME280_temperature;BME280_humidity;BME280_pressure;Samples;Min_cycle;Max_cycle;Signal;HPM_P1;HPM_P2
2022/11/11 00:02:07;;;;;;;27.85;16.10;;;;;;;7.74;100.00;102871.66;5169344;23;20050;-80
2022/11/11 00:04:32;;;;;;;27.45;14.70;;;;;;;7.57;100.00;102824.88;5095099;23;20057;-81
2022/11/11 00:06:57;;;;;;;27.42;14.85;;;;;;;7.59;100.00;102817.97;5033249;28;20070;-81
2022/11/11 00:09:23;;;;;;;27.52;15.32;;;;;;;7.81;100.00;102841.56;5033471;28;20056;-81
2022/11/11 00:11:51;;;;;;;33.63;16.50;;;;;;;8.03;100.00;102870.28;5033169;28;20672;-81
2022/11/11 00:14:16;;;;;;;29.70;16.75;;;;;;;8.05;100.00;102856.50;5033085;28;20029;-80
2022/11/11 00:25:06;;;;;;;29.70;16.92;;;;;;;7.78;100.00;102779.91;5033306;28;20504;-80
2022/11/11 00:27:33;;;;;;;28.52;16.20;;;;;;;8.27;100.00;102850.94;5015005;28;20433;-80
2022/11/11 00:29:58;;;;;;;29.27;16.80;;;;;;;8.26;100.00;102857.81;5032951;28;20100;-81
2022/11/11 00:32:26;;;;;;;34.63;17.17;;;;;;;8.33;100.00;102867.06;5033131;28;20116;-80
2022/11/11 00:37:38;;;;;;;29.63;17.70;;;;;;;8.26;100.00;102852.66;5032919;28;20392;-81
2022/11/11 00:40:04;;;;;;;30.88;17.02;;;;;;;8.41;100.00;102873.81;5032776;28;20021;-81
2022/11/11 00:42:29;;;;;;;32.97;18.45;;;;;;;8.43;100.00;102878.06;5032846;28;20021;-80
2022/11/11 00:44:55;;;;;;;28.20;17.38;;;;;;;8.47;100.00;102881.44;5085838;23;20490;-80
2022/11/11 00:53:37;;;;;;;35.38;18.70;;;;;;;7.74;100.00;102753.38;5018021;28;20044;-80
2022/11/11 00:56:02;;;;;;;;;;;;;;;8.56;100.00;102883.81;5033016;28;20033;-80
2022/11/11 00:58:28;;;;;;;29.98;17.98;;;;;;;8.53;100.00;102889.00;5032600;28;19966;-82
2022/11/11 01:00:56;;;;;;;30.65;18.50;;;;;;;8.56;100.00;102888.97;5015232;28;20017;-80
2022/11/11 01:03:22;;;;;;;32.53;18.73;;;;;;;8.30;100.00;102854.28;5032658;28;20049;-80
2022/11/11 01:05:48;;;;;;;31.67;18.45;;;;;;;8.37;100.00;102865.34;5032364;28;20068;-80
2022/11/11 01:08:13;;;;;;;32.08;18.13;;;;;;;8.26;100.00;102852.66;5032763;28;20052;-80
2022/11/11 01:10:42;;;;;;;34.75;19.23;;;;;;;8.47;100.00;102879.69;5032859;28;20497;-80
2022/11/11 01:13:18;;;;;;;33.80;19.38;;;;;;;8.60;100.00;102898.31;5032909;28;20435;-81
2022/11/11 01:15:46;;;;;;;36.10;20.25;;;;;;;8.31;100.00;102855.97;5032617;28;20104;-81
2022/11/11 01:18:13;;;;;;;32.33;18.95;;;;;;;8.65;100.00;102898.19;5032257;28;20489;-80
2022/11/11 01:20:40;;;;;;;34.33;18.88;;;;;;;8.65;100.00;102891.31;5032412;28;20031;-81
2022/11/11 01:23:06;;;;;;;34.97;19.88;;;;;;;8.67;100.00;102892.16;5032221;28;20025;-80
2022/11/11 01:25:34;;;;;;;34.13;20.02;;;;;;;8.59;100.00;102882.00;5032921;28;20031;-82
2022/11/11 01:28:00;;;;;;;34.22;20.88;;;;;;;8.64;100.00;102884.47;5033208;28;20052;-81
2022/11/11 01:30:26;;;;;;;33.05;19.83;;;;;;;8.62;100.00;102876.78;5032740;28;20029;-82
2022/11/11 01:32:51;;;;;;;34.55;19.63;;;;;;;8.31;100.00;102819.94;5035448;28;20459;-82
2022/11/11 01:35:17;;;;;;;35.92;20.02;;;;;;;8.60;100.00;102863.09;5036353;28;20025;-83
2022/11/11 01:37:42;;;;;;;33.17;19.13;;;;;;;8.43;100.00;102839.44;5036232;28;20022;-82
2022/11/11 01:40:08;;;;;;;33.22;18.92;;;;;;;8.58;100.00;102857.13;5036179;28;20468;-79
2022/11/11 01:42:51;;;;;;;35.05;18.70;;;;;;;8.70;100.00;102863.75;5036221;28;20025;-82
2022/11/11 01:45:47;;;;;;;32.72;19.33;;;;;;;8.74;100.00;102873.06;5035907;28;20044;-82
2022/11/11 01:51:39;;;;;;;34.13;19.30;;;;;;;8.69;100.00;102859.47;5036276;28;20040;-82
2022/11/11 01:54:34;;;;;;;37.60;19.10;;;;;;;8.54;100.00;102839.19;5035711;28;20465;-82
2022/11/11 01:57:08;;;;;;;31.52;18.48;;;;;;;8.65;100.00;102856.97;5022635;28;20062;-82
2022/11/11 01:59:38;;;;;;;36.70;20.65;;;;;;;8.54;100.00;102841.78;5036040;28;20037;-82
2022/11/11 02:02:11;;;;;;;34.72;19.95;;;;;;;8.63;100.00;102851.88;5036222;28;20021;-80
2022/11/11 02:09:51;;;;;;;39.22;19.85;;;;;;;8.47;100.00;102809.34;5034377;28;20115;-80
2022/11/11 02:15:01;;;;;;;34.30;19.40;;;;;;;8.70;100.00;102855.16;5035691;28;20068;-82
2022/11/11 02:17:29;;;;;;;38.55;20.00;;;;;;;8.55;100.00;102825.44;5035301;28;20454;-82
2022/11/11 02:19:57;;;;;;;38.08;20.52;;;;;;;8.68;100.00;102855.22;5035690;28;20026;-81
2022/11/11 02:22:39;;;;;;;32.88;19.75;;;;;;;8.67;100.00;102848.38;5035426;28;20029;-81
2022/11/11 02:25:07;;;;;;;32.28;18.98;;;;;;;8.68;100.00;102850.06;5035223;28;20397;-81
2022/11/11 02:27:36;;;;;;;36.28;19.92;;;;;;;8.67;100.00;102852.66;5035355;28;20029;-83
2022/11/11 02:30:04;;;;;;;40.33;20.20;;;;;;;8.67;100.00;102871.53;5035175;28;20083;-82
2022/11/11 02:32:30;;;;;;;39.40;20.23;;;;;;;8.67;100.00;102861.25;5035193;28;20017;-82
2022/11/11 02:34:55;;;;;;;37.22;20.35;;;;;;;8.67;100.00;102866.41;5035374;28;20091;-82
2022/11/11 02:37:25;;;;;;;34.55;19.55;;;;;;;8.59;100.00;102848.53;5035186;28;20029;-83
2022/11/11 02:39:59;;;;;;;33.42;20.33;;;;;;;8.50;100.00;102833.28;5035013;28;20412;-81
2022/11/11 02:42:24;;;;;;;36.78;19.90;;;;;;;8.50;100.00;102829.84;5034649;28;20034;-82
2022/11/11 02:44:49;;;;;;;37.08;18.67;;;;;;;8.68;100.00;102851.78;5034957;28;20026;-81
2022/11/11 02:47:17;;;;;;;36.85;20.00;;;;;;;8.67;100.00;102850.94;5035187;28;20445;-80
2022/11/11 02:49:42;;;;;;;29.38;18.35;;;;;;;8.66;100.00;102833.78;5035027;28;20095;-83
2022/11/11 02:52:09;;;;;;;31.40;17.88;;;;;;;8.54;100.00;102814.28;5034939;28;20034;-82
2022/11/11 02:54:34;;;;;;;35.00;18.95;;;;;;;8.50;100.00;102820.41;5034682;28;20037;-82
2022/11/11 02:57:09;;;;;;;34.80;18.65;;;;;;;8.60;100.00;102839.91;5034668;28;20108;-82
2022/11/11 02:59:39;;;;;;;36.35;19.42;;;;;;;8.56;100.00;102833.16;5034634;28;20393;-82
2022/11/11 03:02:06;;;;;;;37.30;20.15;;;;;;;7.53;100.00;102662.97;5042039;23;20497;-82
2022/11/11 03:04:54;;;;;;;39.17;19.73;;;;;;;8.13;100.00;102765.44;5034781;28;20143;-82
2022/11/11 03:07:20;;;;;;;35.15;20.00;;;;;;;7.56;100.00;102671.47;5034460;28;20032;-81
2022/11/11 03:09:51;;;;;;;36.95;19.42;;;;;;;7.45;100.00;102645.13;5034104;28;20025;-82
2022/11/11 03:12:17;;;;;;;34.05;17.63;;;;;;;7.53;100.00;102662.97;5050102;23;20136;-80
2022/11/11 03:14:59;;;;;;;35.78;18.20;;;;;;;8.64;100.00;102848.41;5054250;28;20122;-80
2022/11/11 03:17:39;;;;;;;34.63;17.88;;;;;;;8.61;100.00;102851.06;5054172;28;20514;-80
2022/11/11 03:23:09;;;;;;;33.35;17.15;;;;;;;8.42;100.00;102821.44;5054475;28;20047;-80
2022/11/11 03:25:40;;;;;;;34.30;18.08;;;;;;;8.23;100.00;102790.94;5054496;28;20033;-82
2022/11/11 03:28:09;;;;;;;31.45;17.45;;;;;;;8.60;100.00;102854.53;5053020;28;20041;-82
2022/11/11 03:30:37;;;;;;;35.40;17.70;;;;;;;8.39;100.00;102811.22;5054146;28;20423;-81
2022/11/11 03:33:03;;;;;;;37.55;16.85;;;;;;;8.59;100.00;102847.69;5054018;28;20028;-80
2022/11/11 03:35:28;;;;;;;28.05;16.80;;;;;;;8.58;100.00;102853.72;5053911;28;20033;-80
2022/11/11 03:40:38;;;;;;;30.90;17.80;;;;;;;8.54;100.00;102844.34;5054135;28;20090;-80
2022/11/11 03:43:04;;;;;;;34.17;16.48;;;;;;;8.49;100.00;102833.31;5035818;28;20029;-82
2022/11/11 03:45:29;;;;;;;32.85;17.40;;;;;;;8.34;100.00;102799.28;5053685;28;20104;-82
2022/11/11 03:47:54;;;;;;;34.50;16.88;;;;;;;8.56;100.00;102838.31;5053729;28;20060;-81
2022/11/11 03:50:21;;;;;;;34.58;17.08;;;;;;;8.39;100.00;102809.50;5053766;28;20021;-81
2022/11/11 03:52:46;;;;;;;27.40;16.73;;;;;;;8.13;100.00;102768.84;5053760;28;20021;-82
2022/11/11 03:55:12;;;;;;;32.20;16.88;;;;;;;8.48;100.00;102829.91;5052953;28;20051;-82
2022/11/11 03:57:44;;;;;;;33.35;17.45;;;;;;;8.41;100.00;102827.50;5053463;28;20436;-82
2022/11/11 04:00:10;;;;;;;30.67;17.60;;;;;;;8.34;100.00;102824.16;5035454;28;20021;-83
2022/11/11 04:10:50;;;;;;;28.77;16.30;;;;;;;8.29;100.00;102837.13;5033331;28;20048;-83
2022/11/11 04:16:10;;;;;;;29.73;15.90;;;;;;;8.40;100.00;102862.69;4972307;28;20113;-82
2022/11/11 04:25:47;;;;;;;34.25;16.27;;;;;;;8.21;100.00;102853.63;4972696;28;20389;-82
2022/11/11 04:26:53;;;;;;;31.35;16.67;;;;;;;8.37;100.00;102873.06;4972084;28;20035;-82
2022/11/11 04:29:28;;;;;;;29.55;15.27;;;;;;;8.38;100.00;102879.91;4972381;28;20031;-82
2022/11/11 04:34:55;;;;;;;28.80;16.02;;;;;;;8.32;100.00;102877.41;4972681;28;20394;-82
2022/11/11 04:37:22;;;;;;;32.45;15.20;;;;;;;8.20;100.00;102857.91;4972144;28;20042;-83
2022/11/11 04:42:33;;;;;;;30.25;15.52;;;;;;;8.34;100.00;102867.91;4972427;28;20038;-82
2022/11/11 04:48:04;;;;;;;29.55;15.38;;;;;;;8.37;100.00;102864.50;4972509;28;20066;-82
2022/11/11 04:50:39;;;;;;;28.95;16.17;;;;;;;8.34;100.00;102862.78;4972149;28;20442;-82
2022/11/11 04:53:09;;;;;;;30.75;16.55;;;;;;;8.27;100.00;102853.50;5014818;28;20038;-82
2022/11/11 04:58:20;;;;;;;29.65;15.82;;;;;;;8.34;100.00;102865.34;5032942;28;20404;-82
2022/11/11 05:00:45;;;;;;;32.88;17.23;;;;;;;8.09;100.00;102812.72;5033023;28;20021;-82
2022/11/11 05:03:15;;;;;;;31.52;16.38;;;;;;;8.31;100.00;102858.53;5032828;28;20032;-82
2022/11/11 05:08:55;;;;;;;33.53;16.80;;;;;;;8.16;100.00;102838.28;4937435;29;20051;-81
2022/11/11 05:11:29;;;;;;;29.52;16.73;;;;;;;8.20;100.00;102844.22;4937244;29;20040;-80
2022/11/11 05:22:15;;;;;;;31.73;16.70;;;;;;;8.26;100.00;102862.94;4937456;29;20046;-80
2022/11/11 05:27:25;;;;;;;33.90;17.08;;;;;;;8.27;100.00;102861.22;4937080;29;20071;-82
2022/11/11 05:29:51;;;;;;;30.00;17.58;;;;;;;8.27;100.00;102862.06;4937153;29;20063;-80
2022/11/11 05:32:18;;;;;;;32.40;17.15;;;;;;;8.12;100.00;102859.78;4937113;28;20521;-82
2022/11/11 05:34:44;;;;;;;32.33;17.13;;;;;;;8.04;100.00;102847.06;4936839;29;20055;-81
2022/11/11 05:37:10;;;;;;;29.80;15.68;;;;;;;8.19;100.00;102874.25;4920937;29;20063;-81
2022/11/11 05:39:35;;;;;;;28.08;16.60;;;;;;;8.17;100.00;102870.88;4936896;29;20050;-81
2022/11/11 05:42:01;;;;;;;29.95;15.60;;;;;;;8.15;100.00;102875.16;4936686;29;20031;-81
2022/11/11 05:44:26;;;;;;;27.52;15.98;;;;;;;7.81;100.00;102822.69;4943876;28;20028;-80
2022/11/11 05:46:51;;;;;;;31.38;15.73;;;;;;;8.13;100.00;102878.66;5018131;28;20048;-81
2022/11/11 05:49:18;;;;;;;29.55;16.40;;;;;;;8.10;100.00;102877.00;5035904;28;20117;-80
2022/11/11 05:51:44;;;;;;;31.52;14.95;;;;;;;7.94;100.00;102849.88;5036020;28;20032;-80
2022/11/11 05:54:10;;;;;;;31.42;15.80;;;;;;;7.88;100.00;102844.84;5035740;28;20491;-80
2022/11/11 05:56:35;;;;;;;30.35;16.33;;;;;;;8.04;100.00;102866.81;5035698;28;20029;-81
2022/11/11 05:59:01;;;;;;;30.77;16.58;;;;;;;7.72;100.00;102819.41;5035927;28;20030;-81
2022/11/11 06:01:26;;;;;;;28.58;15.50;;;;;;;7.96;100.00;102868.69;5035907;28;20032;-81
2022/11/11 06:03:51;;;;;;;32.30;16.45;;;;;;;7.93;100.00;102871.31;5035873;28;20481;-81
2022/11/11 06:06:17;;;;;;;34.95;18.73;;;;;;;7.90;100.00;102874.81;5035723;28;20030;-79
2022/11/11 06:08:42;;;;;;;33.10;16.40;;;;;;;7.82;100.00;102868.13;5035613;28;20099;-81
2022/11/11 06:11:07;;;;;;;29.83;16.17;;;;;;;7.88;100.00;102880.88;5035744;28;20124;-81
2022/11/11 06:13:33;;;;;;;31.83;16.15;;;;;;;7.87;100.00;102882.59;5035569;28;20171;-81
2022/11/11 06:15:59;;;;;;;31.48;16.80;;;;;;;7.75;100.00;102875.94;5035530;28;20109;-81
2022/11/11 06:18:25;;;;;;;30.15;17.38;;;;;;;7.72;100.00;102878.56;5034827;28;20039;-80
2022/11/11 06:20:57;;;;;;;30.27;15.75;;;;;;;7.75;100.00;102885.38;5035197;28;20022;-81
2022/11/11 06:23:23;;;;;;;27.60;15.98;;;;;;;7.74;100.00;102888.81;5035636;28;20028;-81
2022/11/11 06:28:34;;;;;;;26.50;15.73;;;;;;;7.56;100.00;102858.28;5035580;28;20611;-80
2022/11/11 06:31:00;;;;;;;35.33;18.08;;;;;;;7.52;100.00;102864.38;5035441;28;20021;-82
2022/11/11 06:33:25;;;;;;;28.75;17.25;;;;;;;7.63;100.00;102893.31;5035245;28;20034;-80
2022/11/11 06:35:51;;;;;;;31.98;16.17;;;;;;;7.13;100.00;102812.78;5035787;28;20095;-80
2022/11/11 06:38:19;;;;;;;31.05;16.50;;;;;;;7.63;100.00;102908.75;5035135;28;20552;-82
2022/11/11 06:40:44;;;;;;;31.55;17.75;;;;;;;7.63;100.00;102909.59;5035285;28;20029;-80
2022/11/11 06:43:10;;;;;;;30.55;16.40;;;;;;;7.40;100.00;102879.16;5034837;28;20028;-80
2022/11/11 06:45:36;;;;;;;34.38;17.17;;;;;;;7.41;100.00;102874.84;5034886;28;20546;-81
2022/11/11 06:48:03;;;;;;;29.70;16.67;;;;;;;7.33;100.00;102867.25;5035144;28;20118;-80
2022/11/11 06:50:28;;;;;;;30.33;17.13;;;;;;;7.59;100.00;102913.09;5035017;28;20041;-80
2022/11/11 06:52:54;;;;;;;31.33;16.75;;;;;;;7.57;100.00;102922.56;5035068;28;20025;-81
2022/11/11 06:55:20;;;;;;;30.70;17.13;;;;;;;7.41;100.00;102896.25;5035042;28;20423;-80
2022/11/11 06:57:46;;;;;;;34.03;17.55;;;;;;;7.55;100.00;102918.31;5034586;28;20040;-80
2022/11/11 07:00:12;;;;;;;28.33;16.10;;;;;;;7.45;100.00;102902.19;5034579;28;20029;-81
2022/11/11 07:02:37;;;;;;;29.88;16.27;;;;;;;7.27;100.00;102875.06;5034871;28;20026;-81
2022/11/11 07:05:03;;;;;;;29.48;15.57;;;;;;;7.47;100.00;102903.88;5034553;28;20086;-80
2022/11/11 07:07:28;;;;;;;28.50;15.35;;;;;;;7.45;100.00;102908.19;5034471;28;20041;-80
2022/11/11 07:09:54;;;;;;;29.75;16.13;;;;;;;7.17;100.00;102871.78;5034426;28;20042;-80
2022/11/11 07:12:20;;;;;;;29.50;15.88;;;;;;;7.36;100.00;102921.19;5034380;28;20365;-80
2022/11/11 07:14:46;;;;;;;30.65;16.38;;;;;;;7.28;100.00;102923.03;5034345;28;20480;-80
2022/11/11 07:17:11;;;;;;;27.40;15.32;;;;;;;6.84;100.00;102869.75;5034361;28;20017;-80
2022/11/11 07:19:36;;;;;;;29.98;15.98;;;;;;;7.08;100.00;102928.47;5034248;28;20022;-80
2022/11/11 07:22:02;;;;;;;30.48;15.68;;;;;;;7.02;100.00;102928.56;5034195;28;20428;-81
2022/11/11 07:24:28;;;;;;;31.02;15.80;;;;;;;6.99;100.00;102938.91;5033107;28;20041;-78
2022/11/11 07:26:54;;;;;;;28.13;15.68;;;;;;;6.88;100.00;102933.91;5034611;28;20026;-79
2022/11/11 07:31:55;;;;;;;31.60;16.65;;;;;;;5.70;100.00;102746.38;4992661;28;20061;-80
2022/11/11 07:34:29;;;;;;;28.60;16.00;;;;;;;6.53;100.00;102889.88;4994772;28;20154;-79
2022/11/11 07:37:03;;;;;;;28.95;15.30;;;;;;;5.67;100.00;102743.84;4994527;28;20501;-80
2022/11/11 07:39:53;;;;;;;28.58;16.38;;;;;;;6.89;100.00;102951.00;4977426;28;20057;-81
2022/11/11 07:42:19;;;;;;;27.23;15.05;;;;;;;6.63;100.00;102909.41;4994644;28;20525;-79
2022/11/11 07:44:47;;;;;;;30.48;16.77;;;;;;;6.72;100.00;102926.44;4994433;28;20057;-80
2022/11/11 07:51:05;;;;;;;27.23;14.23;;;;;;;6.91;100.00;102956.13;4994769;28;20508;-79
2022/11/11 08:00:13;;;;;;;31.88;14.93;;;;;;;5.77;100.00;102778.75;5015512;28;20099;-80
2022/11/11 08:02:48;;;;;;;30.77;14.10;;;;;;;6.20;100.00;102853.53;5014437;28;20049;-82
2022/11/11 08:05:32;;;;;;;24.88;13.82;;;;;;;7.06;100.00;102991.84;5013799;28;20025;-81
2022/11/11 08:14:18;;;;;;;28.58;13.82;;;;;;;5.88;100.00;102784.59;5013646;28;20036;-80
2022/11/11 08:16:43;;;;;;;24.88;14.70;;;;;;;7.21;100.00;102993.38;5012711;28;20544;-79
2022/11/11 08:19:19;;;;;;;29.33;14.43;;;;;;;6.85;100.00;102935.66;5013645;28;20112;-80
2022/11/11 08:22:40;;;;;;;26.52;13.90;;;;;;;7.27;100.00;103002.72;5013772;28;20083;-82
2022/11/11 08:25:29;;;;;;;30.08;14.50;;;;;;;7.31;100.00;103004.38;5014012;28;20045;-81
2022/11/11 08:28:38;;;;;;;33.88;14.50;;;;;;;7.32;100.00;103004.34;5013869;28;20111;-80
2022/11/11 08:31:03;;;;;;;26.02;13.23;;;;;;;6.21;100.00;102819.28;5013982;28;20048;-81
2022/11/11 08:33:29;;;;;;;26.75;14.63;;;;;;;7.41;100.00;103016.22;5015552;28;20108;-81
2022/11/11 08:35:57;;;;;;;31.48;15.90;;;;;;;6.76;100.00;102912.66;5013812;28;20041;-81
2022/11/11 08:38:33;;;;;;;29.70;15.60;;;;;;;6.70;100.00;102898.22;5013500;28;20030;-81
2022/11/11 08:41:15;;;;;;;32.00;15.77;;;;;;;7.21;100.00;102992.53;5013056;28;20473;-80
2022/11/11 08:43:40;;;;;;;29.67;14.73;;;;;;;7.42;100.00;103012.78;5013293;28;20033;-81
2022/11/11 08:46:06;;;;;;;35.70;14.98;;;;;;;7.53;100.00;103028.03;5013987;28;20389;-81
2022/11/11 08:48:32;;;;;;;27.52;14.38;;;;;;;7.28;100.00;102989.00;5015969;28;20034;-82
2022/11/11 08:50:57;;;;;;;28.48;14.60;;;;;;;7.59;100.00;103038.25;5013363;28;20154;-83
2022/11/11 08:53:23;;;;;;;29.33;15.00;;;;;;;7.61;100.00;103037.34;5013335;28;20030;-80
2022/11/11 08:55:48;;;;;;;31.48;15.40;;;;;;;7.42;100.00;102992.22;5013300;28;20030;-81
2022/11/11 08:58:14;;;;;;;27.23;15.35;;;;;;;7.42;100.00;102994.78;5041909;28;20052;-79
2022/11/11 09:00:39;;;;;;;27.95;14.07;;;;;;;7.60;100.00;103022.78;5052605;28;20029;-80
2022/11/11 09:03:08;;;;;;;28.00;15.40;;;;;;;7.64;100.00;103024.44;5052772;28;20037;-80
2022/11/11 09:05:34;;;;;;;28.52;14.73;;;;;;;7.73;100.00;103031.16;5052850;28;20022;-81
2022/11/11 09:08:00;;;;;;;27.48;14.32;;;;;;;7.67;100.00;103026.97;5034948;28;20041;-81
2022/11/11 09:10:25;;;;;;;28.58;14.60;;;;;;;7.63;100.00;103012.44;5052922;28;20028;-82
2022/11/11 09:12:56;;;;;;;24.15;14.40;;;;;;;7.63;100.00;103002.16;5052939;28;20365;-82
2022/11/11 09:15:21;;;;;;;25.50;13.20;;;;;;;7.85;100.00;103038.66;5034038;28;20393;-83
2022/11/11 09:17:47;;;;;;;25.02;14.27;;;;;;;7.86;100.00;103035.22;5052895;28;20025;-81
2022/11/11 09:20:12;;;;;;;26.23;14.10;;;;;;;7.89;100.00;103029.19;5052515;28;20029;-80
2022/11/11 09:22:42;;;;;;;25.45;14.23;;;;;;;7.83;100.00;103008.69;5052766;28;20522;-79
2022/11/11 09:25:08;;;;;;;26.52;13.70;;;;;;;7.76;100.00;103001.06;5052742;28;20476;-80
2022/11/11 09:27:33;;;;;;;26.42;13.85;;;;;;;7.99;100.00;103034.16;5034659;28;20094;-80
2022/11/11 09:29:59;;;;;;;28.00;14.45;;;;;;;8.01;100.00;103042.69;5034345;28;20032;-79
2022/11/11 09:32:24;;;;;;;26.83;13.38;;;;;;;8.03;100.00;103033.22;5034192;28;20381;-80
2022/11/11 09:34:49;;;;;;;24.20;12.95;;;;;;;8.07;100.00;103040.91;5052794;28;20021;-80
2022/11/11 09:37:17;;;;;;;25.70;14.30;;;;;;;8.10;100.00;103036.53;5052502;28;20065;-81
2022/11/11 09:39:43;;;;;;;25.50;12.57;;;;;;;8.13;100.00;103035.63;5052614;28;20119;-78
2022/11/11 09:42:17;;;;;;;25.25;12.95;;;;;;;8.14;100.00;103043.31;5052826;28;20080;-79
2022/11/11 09:45:05;;;;;;;25.73;13.52;;;;;;;8.16;100.00;103039.03;5052714;28;20377;-78
2022/11/11 09:47:51;;;;;;;28.45;14.32;;;;;;;8.16;100.00;103030.44;5052228;28;20052;-81
2022/11/11 09:50:28;;;;;;;27.52;13.23;;;;;;;8.25;100.00;103043.13;5052219;28;20059;-79
2022/11/11 09:53:15;;;;;;;22.10;12.75;;;;;;;8.27;100.00;103044.81;5053680;28;20033;-79
2022/11/11 09:56:07;;;;;;;23.35;12.20;;;;;;;8.13;100.00;103012.47;5056281;28;20109;-79
2022/11/11 09:59:05;;;;;;;22.13;12.25;;;;;;;8.40;100.00;103047.19;5055256;28;20053;-80
2022/11/11 10:01:41;;;;;;;23.15;12.20;;;;;;;8.32;100.00;103027.56;5013740;28;20054;-75
2022/11/11 10:04:24;;;;;;;22.45;11.95;;;;;;;8.38;100.00;103030.94;5014373;28;20057;-79
2022/11/11 10:06:56;;;;;;;21.80;11.98;;;;;;;8.45;100.00;103032.50;5014034;28;20065;-79
2022/11/11 10:09:28;;;;;;;;;;;;;;;8.55;100.00;103044.31;4998123;28;20026;-79
2022/11/11 10:12:10;;;;;;;22.45;12.38;;;;;;;8.57;100.00;103042.59;5013625;28;19939;-79
2022/11/11 10:14:39;;;;;;;23.77;12.98;;;;;;;8.53;100.00;103040.94;5013827;28;20033;-81
2022/11/11 10:17:31;;;;;;;24.02;12.98;;;;;;;8.59;100.00;103049.41;5013603;28;20028;-81
2022/11/11 10:20:16;;;;;;;23.33;12.10;;;;;;;8.37;100.00;102998.34;5014298;28;20037;-81
2022/11/11 10:22:42;;;;;;;21.52;11.70;;;;;;;8.61;99.93;103028.78;5013825;28;20157;-80
2022/11/11 10:25:10;;;;;;;22.58;11.93;;;;;;;8.82;99.71;103059.25;5013808;28;20041;-80
2022/11/11 10:27:41;;;;;;;22.92;11.75;;;;;;;8.74;99.58;103037.94;5013764;28;20050;-82
2022/11/11 10:30:13;;;;;;;23.67;11.88;;;;;;;8.95;99.68;103064.16;4997267;28;20436;-81
2022/11/11 10:32:39;;;;;;;;;;;;;;;8.99;100.00;103061.50;5013974;28;20061;-81
2022/11/11 10:35:23;;;;;;;24.35;12.55;;;;;;;9.05;98.58;103063.09;5013453;28;19959;-82
2022/11/11 10:37:57;;;;;;;21.73;12.02;;;;;;;8.88;98.41;103032.53;5034176;28;20045;-81
2022/11/11 10:40:52;;;;;;;18.23;10.50;;;;;;;9.05;98.36;103051.06;5055478;28;20064;-81
2022/11/11 10:43:26;;;;;;;27.58;12.25;;;;;;;9.17;97.92;103065.41;5032585;28;20488;-81
2022/11/11 10:46:06;;;;;;;20.60;11.02;;;;;;;9.21;97.72;103056.72;5055340;28;20123;-80
2022/11/11 10:48:37;;;;;;;21.33;11.15;;;;;;;9.26;97.24;103054.91;5054878;28;20535;-80
2022/11/11 10:51:04;;;;;;;20.15;11.70;;;;;;;8.98;96.37;103003.09;5055072;28;20040;-80
2022/11/11 10:53:41;;;;;;;20.33;10.70;;;;;;;9.35;95.82;103061.59;5055376;28;20440;-80
2022/11/11 10:56:19;;;;;;;18.80;10.35;;;;;;;9.37;96.23;103047.78;5054892;28;20075;-79
2022/11/11 10:58:50;;;;;;;19.85;10.52;;;;;;;9.47;96.04;103049.28;5053843;28;20137;-78
2022/11/11 11:01:21;;;;;;;17.60;10.00;;;;;;;9.51;95.57;103051.78;5055262;28;20041;-78
2022/11/11 11:03:52;;;;;;;20.73;10.50;;;;;;;9.60;94.29;103059.28;5054743;28;20384;-79
2022/11/11 11:06:23;;;;;;;21.67;10.27;;;;;;;9.65;94.88;103060.91;5054799;28;20049;-77
2022/11/11 11:08:53;;;;;;;18.70;10.30;;;;;;;9.71;93.62;103052.16;5054215;28;20460;-78
2022/11/11 11:11:24;;;;;;;21.05;11.25;;;;;;;9.77;94.12;103052.88;5054424;28;20056;-79
2022/11/11 11:13:59;;;;;;;17.27;10.07;;;;;;;9.76;93.75;103043.44;5054663;28;20024;-79
2022/11/11 11:16:31;;;;;;;18.80;11.15;;;;;;;9.93;94.20;103055.06;5054371;28;20380;-78
2022/11/11 11:19:28;;;;;;;18.23;9.93;;;;;;;8.81;94.53;102848.03;5042042;23;20042;-79
2022/11/11 11:22:03;;;;;;;18.10;10.25;;;;;;;9.58;93.46;102951.00;4995429;28;20045;-79
2022/11/11 11:24:41;;;;;;;20.38;9.70;;;;;;;10.22;91.59;103044.88;4995081;28;20112;-79
2022/11/11 11:27:08;;;;;;;19.48;9.80;;;;;;;10.29;91.31;103051.56;4995189;28;20080;-80
2022/11/11 11:29:41;;;;;;;16.80;9.13;;;;;;;10.37;91.11;103050.53;4994958;28;20030;-78
2022/11/11 11:32:14;;;;;;;17.98;8.65;;;;;;;10.41;90.33;103037.47;4977412;28;20086;-79
2022/11/11 11:34:48;;;;;;;16.70;8.07;;;;;;;10.44;89.73;103034.84;4994690;28;20473;-76
2022/11/11 11:37:15;;;;;;;14.90;8.43;;;;;;;10.53;90.14;103033.75;4995029;28;20034;-79
2022/11/11 11:39:41;;;;;;;12.77;7.68;;;;;;;10.54;89.51;103027.69;4994368;28;20026;-80
2022/11/11 11:42:06;;;;;;;13.45;7.82;;;;;;;10.65;89.53;103043.72;4976772;28;20033;-81
2022/11/11 11:44:38;;;;;;;14.00;7.07;;;;;;;10.40;90.07;102989.31;4994428;28;20026;-78
2022/11/11 11:47:46;;;;;;;13.77;7.45;;;;;;;10.81;90.34;103039.81;4995689;28;20386;-78
2022/11/11 11:50:50;;;;;;;13.07;6.65;;;;;;;10.87;89.48;103042.22;4996253;28;20172;-84
2022/11/11 11:53:22;;;;;;;13.38;6.50;;;;;;;10.90;88.40;103033.53;4995825;28;20038;-80
2022/11/11 11:56:07;;;;;;;12.52;6.40;;;;;;;10.68;88.27;102985.94;4998043;28;20112;-83
2022/11/11 11:58:41;;;;;;;12.88;6.35;;;;;;;11.01;88.62;103035.78;4995317;28;20030;-79
2022/11/11 12:01:14;;;;;;;10.35;5.80;;;;;;;10.98;87.22;103026.41;4994436;28;20381;-79
2022/11/11 12:04:10;;;;;;;10.88;5.30;;;;;;;10.93;87.93;103011.94;4995008;28;20026;-79
2022/11/11 12:06:54;;;;;;;11.68;5.15;;;;;;;11.02;87.23;103029.75;4994880;28;20026;-79
2022/11/11 12:09:31;;;;;;;12.20;4.95;;;;;;;11.04;86.60;103030.56;4994395;28;20026;-82
2022/11/11 12:12:06;;;;;;;9.13;4.88;;;;;;;10.99;85.90;103022.91;4994111;28;20030;-82
2022/11/11 12:14:43;;;;;;;9.70;4.88;;;;;;;11.04;86.74;103030.56;4994141;28;20073;-82
2022/11/11 12:17:33;;;;;;;9.10;5.10;;;;;;;11.05;85.91;103024.50;4993655;28;20027;-80
2022/11/11 12:19:58;;;;;;;10.98;4.53;;;;;;;11.04;85.49;103023.66;4991665;28;20035;-79
2022/11/11 12:22:40;;;;;;;11.30;4.55;;;;;;;10.95;85.79;103000.66;4993812;28;20145;-80
2022/11/11 12:25:18;;;;;;;;;;;;;;;11.09;88.16;103019.16;4994950;28;20034;-80
2022/11/11 12:28:24;;;;;;;11.30;4.35;;;;;;;10.99;87.64;102986.72;4994812;28;19941;-80
2022/11/11 12:31:13;;;;;;;9.10;3.63;;;;;;;11.02;86.21;102978.91;4994687;28;20034;-83
2022/11/11 12:34:13;;;;;;;7.65;3.40;;;;;;;11.03;84.98;102975.41;4993940;28;20168;-81
2022/11/11 12:36:57;;;;;;;10.38;4.47;;;;;;;11.25;86.29;103000.63;4996575;28;20053;-80
2022/11/11 12:39:44;;;;;;;9.75;3.60;;;;;;;11.29;86.31;102990.09;4993928;28;20030;-80
2022/11/11 12:42:27;;;;;;;7.53;3.70;;;;;;;11.34;85.05;102992.56;4994069;28;20030;-86
2022/11/11 12:45:16;;;;;;;9.88;3.53;;;;;;;11.38;85.88;102995.00;4994456;28;20026;-82
2022/11/11 12:48:02;;;;;;;8.27;3.20;;;;;;;11.39;83.98;102990.66;4993847;28;20124;-80
2022/11/11 12:51:00;;;;;;;6.97;3.40;;;;;;;11.41;84.09;102994.91;4993010;28;20026;-81
2022/11/11 12:53:54;;;;;;;7.07;3.35;;;;;;;11.13;83.11;102948.38;4990173;28;20137;-83
2022/11/11 12:57:22;;;;;;;7.72;3.35;;;;;;;10.56;84.03;102857.97;4993778;28;20497;-81
2022/11/11 12:59:58;;;;;;;7.47;3.25;;;;;;;11.47;84.00;102999.03;4993746;28;20077;-80
2022/11/11 13:02:51;;;;;;;7.50;3.00;;;;;;;11.51;83.71;102998.06;4993582;28;20088;-79
2022/11/11 13:05:32;;;;;;;6.05;2.70;;;;;;;11.52;83.67;103001.50;4993374;28;20438;-80
2022/11/11 13:08:19;;;;;;;6.45;3.00;;;;;;;11.54;83.18;102995.34;4993575;28;20022;-80
2022/11/11 13:10:54;;;;;;;8.27;3.08;;;;;;;11.51;83.30;102979.94;4993258;28;20034;-80
2022/11/11 13:13:44;;;;;;;5.53;2.80;;;;;;;11.58;82.62;103001.28;5032705;23;20132;-80